sensor_id;sensor_type;location;lat;lon;timestamp;P1;durP1;ratioP1;P2;durP2;ratioP2
20441;SDS011;10380;52.102;20.614;2023-02-26T00:01:30;2.83;;;2.60;;
20441;SDS011;10380;52.102;20.614;2023-02-26T00:04:00;2.77;;;2.40;;
20441;SDS011;10380;52.102;20.614;2023-02-26T00:06:30;2.80;;;2.60;;
20441;SDS011;10380;52.102;20.614;2023-02-26T00:08:59;2.53;;;1.80;;
20441;SDS011;10380;52.102;20.614;2023-02-26T00:11:26;4.40;;;3.00;;
20441;SDS011;10380;52.102;20.614;2023-02-26T00:13:53;2.90;;;2.40;;
20441;SDS011;10380;52.102;20.614;2023-02-26T00:16:28;2.77;;;2.00;;
20441;SDS011;10380;52.102;20.614;2023-02-26T00:18:59;3.63;;;3.33;;
20441;SDS011;10380;52.102;20.614;2023-02-26T00:21:27;2.33;;;2.07;;
20441;SDS011;10380;52.102;20.614;2023-02-26T00:23:56;3.60;;;2.33;;
20441;SDS011;10380;52.102;20.614;2023-02-26T00:26:24;2.90;;;2.60;;
20441;SDS011;10380;52.102;20.614;2023-02-26T00:28:53;3.93;;;2.67;;
20441;SDS011;10380;52.102;20.614;2023-02-26T00:31:21;4.23;;;2.50;;
20441;SDS011;10380;52.102;20.614;2023-02-26T00:33:51;2.17;;;1.90;;
20441;SDS011;10380;52.102;20.614;2023-02-26T00:36:21;3.77;;;2.67;;
20441;SDS011;10380;52.102;20.614;2023-02-26T00:41:49;2.67;;;2.30;;
20441;SDS011;10380;52.102;20.614;2023-02-26T00:44:16;2.73;;;2.17;;
20441;SDS011;10380;52.102;20.614;2023-02-26T00:52:43;2.97;;;2.37;;
20441;SDS011;10380;52.102;20.614;2023-02-26T00:55:31;3.53;;;2.80;;
20441;SDS011;10380;52.102;20.614;2023-02-26T00:57:58;2.50;;;2.07;;
20441;SDS011;10380;52.102;20.614;2023-02-26T01:00:25;7.43;;;2.60;;
20441;SDS011;10380;52.102;20.614;2023-02-26T01:02:52;4.20;;;2.50;;
20441;SDS011;10380;52.102;20.614;2023-02-26T01:05:19;7.20;;;2.57;;
20441;SDS011;10380;52.102;20.614;2023-02-26T01:07:58;3.53;;;2.30;;
20441;SDS011;10380;52.102;20.614;2023-02-26T01:10:47;3.63;;;2.87;;
20441;SDS011;10380;52.102;20.614;2023-02-26T01:13:15;2.67;;;2.30;;
20441;SDS011;10380;52.102;20.614;2023-02-26T01:15:44;2.30;;;1.80;;
20441;SDS011;10380;52.102;20.614;2023-02-26T01:18:17;2.53;;;2.33;;
20441;SDS011;10380;52.102;20.614;2023-02-26T01:21:27;4.50;;;3.23;;
20441;SDS011;10380;52.102;20.614;2023-02-26T01:23:50;2.90;;;2.43;;
20441;SDS011;10380;52.102;20.614;2023-02-26T01:26:18;3.47;;;2.57;;
20441;SDS011;10380;52.102;20.614;2023-02-26T01:28:47;3.60;;;2.63;;
20441;SDS011;10380;52.102;20.614;2023-02-26T01:31:37;3.17;;;2.37;;
20441;SDS011;10380;52.102;20.614;2023-02-26T01:34:18;5.03;;;2.60;;
20441;SDS011;10380;52.102;20.614;2023-02-26T01:42:51;3.93;;;2.80;;
20441;SDS011;10380;52.102;20.614;2023-02-26T01:45:34;3.13;;;2.50;;
20441;SDS011;10380;52.102;20.614;2023-02-26T01:48:17;4.13;;;2.97;;
20441;SDS011;10380;52.102;20.614;2023-02-26T01:51:01;3.17;;;2.63;;
20441;SDS011;10380;52.102;20.614;2023-02-26T01:53:28;4.67;;;2.97;;
20441;SDS011;10380;52.102;20.614;2023-02-26T01:55:56;3.37;;;2.80;;
20441;SDS011;10380;52.102;20.614;2023-02-26T01:58:29;3.67;;;3.37;;
20441;SDS011;10380;52.102;20.614;2023-02-26T02:01:00;5.27;;;2.93;;
20441;SDS011;10380;52.102;20.614;2023-02-26T02:03:28;9.93;;;5.73;;
20441;SDS011;10380;52.102;20.614;2023-02-26T02:06:06;3.67;;;2.57;;
20441;SDS011;10380;52.102;20.614;2023-02-26T02:08:42;3.50;;;3.17;;
20441;SDS011;10380;52.102;20.614;2023-02-26T02:11:10;6.30;;;3.30;;
20441;SDS011;10380;52.102;20.614;2023-02-26T02:14:06;3.77;;;2.73;;
20441;SDS011;10380;52.102;20.614;2023-02-26T02:19:07;9.27;;;5.63;;
20441;SDS011;10380;52.102;20.614;2023-02-26T02:21:53;16.07;;;7.83;;
20441;SDS011;10380;52.102;20.614;2023-02-26T02:31:27;6.77;;;3.63;;
20441;SDS011;10380;52.102;20.614;2023-02-26T02:34:09;3.47;;;3.17;;
20441;SDS011;10380;52.102;20.614;2023-02-26T02:36:49;2.87;;;2.40;;
20441;SDS011;10380;52.102;20.614;2023-02-26T02:39:30;5.60;;;3.83;;
20441;SDS011;10380;52.102;20.614;2023-02-26T02:42:21;4.80;;;3.20;;
20441;SDS011;10380;52.102;20.614;2023-02-26T02:45:10;6.13;;;3.57;;
20441;SDS011;10380;52.102;20.614;2023-02-26T02:47:46;6.10;;;3.60;;
20441;SDS011;10380;52.102;20.614;2023-02-26T02:50:26;12.77;;;9.90;;
20441;SDS011;10380;52.102;20.614;2023-02-26T02:53:02;5.23;;;3.00;;
20441;SDS011;10380;52.102;20.614;2023-02-26T02:55:35;5.13;;;3.57;;
20441;SDS011;10380;52.102;20.614;2023-02-26T02:58:07;6.53;;;4.37;;
20441;SDS011;10380;52.102;20.614;2023-02-26T03:00:47;6.63;;;4.73;;
20441;SDS011;10380;52.102;20.614;2023-02-26T03:03:33;10.10;;;6.50;;
20441;SDS011;10380;52.102;20.614;2023-02-26T03:06:08;5.53;;;4.43;;
20441;SDS011;10380;52.102;20.614;2023-02-26T03:08:37;4.27;;;3.43;;
20441;SDS011;10380;52.102;20.614;2023-02-26T03:11:07;4.17;;;3.57;;
20441;SDS011;10380;52.102;20.614;2023-02-26T03:13:34;4.73;;;3.37;;
20441;SDS011;10380;52.102;20.614;2023-02-26T03:16:15;6.63;;;4.47;;
20441;SDS011;10380;52.102;20.614;2023-02-26T03:18:53;5.43;;;3.53;;
20441;SDS011;10380;52.102;20.614;2023-02-26T03:21:38;6.23;;;4.07;;
20441;SDS011;10380;52.102;20.614;2023-02-26T03:24:15;5.20;;;3.57;;
20441;SDS011;10380;52.102;20.614;2023-02-26T03:32:11;5.77;;;3.50;;
20441;SDS011;10380;52.102;20.614;2023-02-26T03:40:08;4.80;;;3.60;;
20441;SDS011;10380;52.102;20.614;2023-02-26T03:42:49;47.40;;;22.77;;
20441;SDS011;10380;52.102;20.614;2023-02-26T03:45:58;19.97;;;10.23;;
20441;SDS011;10380;52.102;20.614;2023-02-26T03:48:29;6.77;;;4.20;;
20441;SDS011;10380;52.102;20.614;2023-02-26T03:51:00;5.33;;;4.30;;
20441;SDS011;10380;52.102;20.614;2023-02-26T03:53:34;6.73;;;6.13;;
20441;SDS011;10380;52.102;20.614;2023-02-26T03:56:13;4.50;;;4.10;;
20441;SDS011;10380;52.102;20.614;2023-02-26T03:58:47;5.80;;;4.60;;
20441;SDS011;10380;52.102;20.614;2023-02-26T04:01:16;5.20;;;4.23;;
20441;SDS011;10380;52.102;20.614;2023-02-26T04:06:32;4.93;;;4.43;;
20441;SDS011;10380;52.102;20.614;2023-02-26T04:09:02;6.70;;;4.77;;
20441;SDS011;10380;52.102;20.614;2023-02-26T04:11:30;6.23;;;4.80;;
20441;SDS011;10380;52.102;20.614;2023-02-26T04:13:58;9.13;;;4.70;;
20441;SDS011;10380;52.102;20.614;2023-02-26T04:16:25;5.00;;;4.13;;
20441;SDS011;10380;52.102;20.614;2023-02-26T04:18:54;4.83;;;3.63;;
20441;SDS011;10380;52.102;20.614;2023-02-26T04:21:22;5.70;;;3.80;;
20441;SDS011;10380;52.102;20.614;2023-02-26T04:23:49;4.50;;;3.40;;
20441;SDS011;10380;52.102;20.614;2023-02-26T04:26:16;3.90;;;3.40;;
20441;SDS011;10380;52.102;20.614;2023-02-26T04:28:43;3.93;;;3.40;;
20441;SDS011;10380;52.102;20.614;2023-02-26T04:31:10;4.53;;;3.33;;
20441;SDS011;10380;52.102;20.614;2023-02-26T04:33:37;5.67;;;3.50;;
20441;SDS011;10380;52.102;20.614;2023-02-26T04:36:04;4.97;;;3.87;;
20441;SDS011;10380;52.102;20.614;2023-02-26T04:38:31;4.97;;;2.47;;
20441;SDS011;10380;52.102;20.614;2023-02-26T04:41:00;4.03;;;3.00;;
20441;SDS011;10380;52.102;20.614;2023-02-26T04:43:27;3.90;;;2.83;;
20441;SDS011;10380;52.102;20.614;2023-02-26T04:45:54;2.23;;;2.03;;
20441;SDS011;10380;52.102;20.614;2023-02-26T04:48:21;2.70;;;2.50;;
20441;SDS011;10380;52.102;20.614;2023-02-26T04:50:48;3.10;;;2.80;;
20441;SDS011;10380;52.102;20.614;2023-02-26T04:53:16;3.50;;;2.20;;
20441;SDS011;10380;52.102;20.614;2023-02-26T04:55:43;3.43;;;2.43;;
20441;SDS011;10380;52.102;20.614;2023-02-26T04:58:15;4.33;;;3.70;;
20441;SDS011;10380;52.102;20.614;2023-02-26T05:00:42;3.40;;;2.70;;
20441;SDS011;10380;52.102;20.614;2023-02-26T05:03:13;2.60;;;2.40;;
20441;SDS011;10380;52.102;20.614;2023-02-26T05:05:40;2.50;;;2.23;;
20441;SDS011;10380;52.102;20.614;2023-02-26T05:08:07;1.90;;;1.73;;
20441;SDS011;10380;52.102;20.614;2023-02-26T05:10:34;2.77;;;1.97;;
20441;SDS011;10380;52.102;20.614;2023-02-26T05:13:01;4.57;;;2.33;;
20441;SDS011;10380;52.102;20.614;2023-02-26T05:15:28;2.30;;;2.10;;
20441;SDS011;10380;52.102;20.614;2023-02-26T05:17:55;2.30;;;2.03;;
20441;SDS011;10380;52.102;20.614;2023-02-26T05:20:22;2.63;;;1.90;;
20441;SDS011;10380;52.102;20.614;2023-02-26T05:22:50;2.07;;;1.90;;
20441;SDS011;10380;52.102;20.614;2023-02-26T05:25:17;2.87;;;2.53;;
20441;SDS011;10380;52.102;20.614;2023-02-26T05:27:44;1.60;;;1.50;;
20441;SDS011;10380;52.102;20.614;2023-02-26T05:30:13;2.00;;;1.80;;
20441;SDS011;10380;52.102;20.614;2023-02-26T05:32:41;1.60;;;1.37;;
20441;SDS011;10380;52.102;20.614;2023-02-26T05:35:08;3.57;;;2.00;;
20441;SDS011;10380;52.102;20.614;2023-02-26T05:37:36;2.43;;;1.83;;
20441;SDS011;10380;52.102;20.614;2023-02-26T05:40:04;1.67;;;1.53;;
20441;SDS011;10380;52.102;20.614;2023-02-26T05:42:34;3.47;;;1.90;;
20441;SDS011;10380;52.102;20.614;2023-02-26T05:45:02;3.27;;;1.93;;
20441;SDS011;10380;52.102;20.614;2023-02-26T05:47:34;5.23;;;2.20;;
20441;SDS011;10380;52.102;20.614;2023-02-26T05:50:02;4.57;;;2.63;;
20441;SDS011;10380;52.102;20.614;2023-02-26T05:52:30;4.03;;;2.90;;
20441;SDS011;10380;52.102;20.614;2023-02-26T05:54:57;2.47;;;2.23;;
20441;SDS011;10380;52.102;20.614;2023-02-26T05:57:24;2.43;;;1.97;;
20441;SDS011;10380;52.102;20.614;2023-02-26T05:59:51;3.43;;;2.07;;
20441;SDS011;10380;52.102;20.614;2023-02-26T06:02:19;3.27;;;2.20;;
20441;SDS011;10380;52.102;20.614;2023-02-26T06:04:46;2.53;;;1.97;;
20441;SDS011;10380;52.102;20.614;2023-02-26T06:07:13;2.20;;;2.00;;
20441;SDS011;10380;52.102;20.614;2023-02-26T06:09:41;5.33;;;2.50;;
20441;SDS011;10380;52.102;20.614;2023-02-26T06:12:08;3.73;;;2.37;;
20441;SDS011;10380;52.102;20.614;2023-02-26T06:14:35;2.00;;;1.90;;
20441;SDS011;10380;52.102;20.614;2023-02-26T06:17:03;2.17;;;1.87;;
20441;SDS011;10380;52.102;20.614;2023-02-26T06:19:30;2.93;;;1.77;;
20441;SDS011;10380;52.102;20.614;2023-02-26T06:21:58;2.03;;;1.80;;
20441;SDS011;10380;52.102;20.614;2023-02-26T06:24:25;3.87;;;1.70;;
20441;SDS011;10380;52.102;20.614;2023-02-26T06:26:51;3.80;;;2.23;;
20441;SDS011;10380;52.102;20.614;2023-02-26T06:29:18;3.50;;;2.03;;
20441;SDS011;10380;52.102;20.614;2023-02-26T06:31:46;1.50;;;1.23;;
20441;SDS011;10380;52.102;20.614;2023-02-26T06:34:13;7.63;;;4.53;;
20441;SDS011;10380;52.102;20.614;2023-02-26T06:36:40;5.50;;;3.83;;
20441;SDS011;10380;52.102;20.614;2023-02-26T06:39:07;2.57;;;1.60;;
20441;SDS011;10380;52.102;20.614;2023-02-26T06:41:34;2.93;;;2.70;;
20441;SDS011;10380;52.102;20.614;2023-02-26T06:44:01;5.30;;;3.70;;
20441;SDS011;10380;52.102;20.614;2023-02-26T06:46:28;3.50;;;2.47;;
20441;SDS011;10380;52.102;20.614;2023-02-26T06:48:55;2.53;;;1.83;;
20441;SDS011;10380;52.102;20.614;2023-02-26T06:51:22;1.93;;;1.50;;
20441;SDS011;10380;52.102;20.614;2023-02-26T06:53:49;4.00;;;1.37;;
20441;SDS011;10380;52.102;20.614;2023-02-26T06:56:16;2.00;;;1.30;;
20441;SDS011;10380;52.102;20.614;2023-02-26T06:58:43;11.27;;;6.47;;
20441;SDS011;10380;52.102;20.614;2023-02-26T07:01:10;4.67;;;2.60;;
20441;SDS011;10380;52.102;20.614;2023-02-26T07:03:36;7.63;;;4.37;;
20441;SDS011;10380;52.102;20.614;2023-02-26T07:06:03;3.93;;;2.73;;
20441;SDS011;10380;52.102;20.614;2023-02-26T07:08:51;13.30;;;5.47;;
20441;SDS011;10380;52.102;20.614;2023-02-26T07:11:19;3.90;;;2.50;;
20441;SDS011;10380;52.102;20.614;2023-02-26T07:13:45;6.97;;;3.43;;
20441;SDS011;10380;52.102;20.614;2023-02-26T07:16:12;17.67;;;6.53;;
20441;SDS011;10380;52.102;20.614;2023-02-26T07:18:39;3.50;;;2.30;;
20441;SDS011;10380;52.102;20.614;2023-02-26T07:21:06;7.57;;;3.03;;
20441;SDS011;10380;52.102;20.614;2023-02-26T07:23:33;6.37;;;2.50;;
20441;SDS011;10380;52.102;20.614;2023-02-26T07:26:00;2.70;;;1.50;;
20441;SDS011;10380;52.102;20.614;2023-02-26T07:28:27;2.73;;;1.80;;
20441;SDS011;10380;52.102;20.614;2023-02-26T07:30:54;10.30;;;3.97;;
20441;SDS011;10380;52.102;20.614;2023-02-26T07:33:22;6.57;;;3.20;;
20441;SDS011;10380;52.102;20.614;2023-02-26T07:35:51;7.47;;;3.23;;
20441;SDS011;10380;52.102;20.614;2023-02-26T07:38:18;3.40;;;2.60;;
20441;SDS011;10380;52.102;20.614;2023-02-26T07:40:46;7.17;;;4.40;;
20441;SDS011;10380;52.102;20.614;2023-02-26T07:43:12;3.13;;;1.67;;
20441;SDS011;10380;52.102;20.614;2023-02-26T07:45:39;2.80;;;2.13;;
20441;SDS011;10380;52.102;20.614;2023-02-26T07:48:06;1.93;;;1.67;;
20441;SDS011;10380;52.102;20.614;2023-02-26T07:50:33;6.43;;;3.67;;
20441;SDS011;10380;52.102;20.614;2023-02-26T07:53:00;1.50;;;1.40;;
20441;SDS011;10380;52.102;20.614;2023-02-26T07:55:27;2.00;;;1.50;;
20441;SDS011;10380;52.102;20.614;2023-02-26T07:57:55;6.27;;;3.43;;
20441;SDS011;10380;52.102;20.614;2023-02-26T08:00:22;16.50;;;6.93;;
20441;SDS011;10380;52.102;20.614;2023-02-26T08:02:48;8.63;;;3.63;;
20441;SDS011;10380;52.102;20.614;2023-02-26T08:05:15;5.43;;;3.47;;
20441;SDS011;10380;52.102;20.614;2023-02-26T08:07:42;3.90;;;2.17;;
20441;SDS011;10380;52.102;20.614;2023-02-26T08:10:09;3.47;;;1.57;;
20441;SDS011;10380;52.102;20.614;2023-02-26T08:12:37;2.10;;;1.90;;
20441;SDS011;10380;52.102;20.614;2023-02-26T08:15:04;3.27;;;1.80;;
20441;SDS011;10380;52.102;20.614;2023-02-26T08:17:31;2.13;;;1.70;;
20441;SDS011;10380;52.102;20.614;2023-02-26T08:19:59;4.00;;;2.23;;
20441;SDS011;10380;52.102;20.614;2023-02-26T08:22:26;5.40;;;2.57;;
20441;SDS011;10380;52.102;20.614;2023-02-26T08:24:52;3.60;;;2.23;;
20441;SDS011;10380;52.102;20.614;2023-02-26T08:27:19;2.10;;;1.90;;
20441;SDS011;10380;52.102;20.614;2023-02-26T08:29:46;1.60;;;1.23;;
20441;SDS011;10380;52.102;20.614;2023-02-26T08:32:16;3.23;;;2.40;;
20441;SDS011;10380;52.102;20.614;2023-02-26T08:34:45;2.53;;;1.77;;
20441;SDS011;10380;52.102;20.614;2023-02-26T08:37:12;5.00;;;3.43;;
20441;SDS011;10380;52.102;20.614;2023-02-26T08:39:39;2.53;;;2.23;;
20441;SDS011;10380;52.102;20.614;2023-02-26T08:42:07;3.63;;;2.33;;
20441;SDS011;10380;52.102;20.614;2023-02-26T08:44:35;7.03;;;3.80;;
20441;SDS011;10380;52.102;20.614;2023-02-26T08:47:02;5.13;;;2.93;;
20441;SDS011;10380;52.102;20.614;2023-02-26T08:49:29;6.33;;;3.60;;
20441;SDS011;10380;52.102;20.614;2023-02-26T08:51:56;2.33;;;1.90;;
20441;SDS011;10380;52.102;20.614;2023-02-26T08:54:23;3.07;;;2.23;;
20441;SDS011;10380;52.102;20.614;2023-02-26T08:56:50;2.97;;;1.93;;
20441;SDS011;10380;52.102;20.614;2023-02-26T08:59:20;4.47;;;2.23;;
20441;SDS011;10380;52.102;20.614;2023-02-26T09:01:47;5.50;;;3.07;;
20441;SDS011;10380;52.102;20.614;2023-02-26T09:04:14;5.67;;;3.10;;
20441;SDS011;10380;52.102;20.614;2023-02-26T09:06:41;22.97;;;10.20;;
20441;SDS011;10380;52.102;20.614;2023-02-26T09:09:08;5.33;;;3.80;;
20441;SDS011;10380;52.102;20.614;2023-02-26T09:11:35;5.33;;;3.83;;
20441;SDS011;10380;52.102;20.614;2023-02-26T09:14:03;6.27;;;2.97;;
20441;SDS011;10380;52.102;20.614;2023-02-26T09:16:31;6.33;;;3.87;;
20441;SDS011;10380;52.102;20.614;2023-02-26T09:19:02;5.97;;;3.33;;
20441;SDS011;10380;52.102;20.614;2023-02-26T09:21:31;6.40;;;3.70;;
20441;SDS011;10380;52.102;20.614;2023-02-26T09:23:58;6.50;;;3.97;;
20441;SDS011;10380;52.102;20.614;2023-02-26T09:26:25;8.63;;;3.83;;
20441;SDS011;10380;52.102;20.614;2023-02-26T09:28:52;10.27;;;4.80;;
20441;SDS011;10380;52.102;20.614;2023-02-26T09:31:19;6.43;;;3.70;;
20441;SDS011;10380;52.102;20.614;2023-02-26T09:33:46;8.20;;;3.80;;
20441;SDS011;10380;52.102;20.614;2023-02-26T09:36:13;4.00;;;3.13;;
20441;SDS011;10380;52.102;20.614;2023-02-26T09:38:41;3.43;;;2.90;;
20441;SDS011;10380;52.102;20.614;2023-02-26T09:41:21;43.93;;;26.77;;
20441;SDS011;10380;52.102;20.614;2023-02-26T09:44:13;3.80;;;2.93;;
20441;SDS011;10380;52.102;20.614;2023-02-26T09:52:25;2.60;;;2.20;;
20441;SDS011;10380;52.102;20.614;2023-02-26T09:54:57;5.57;;;3.40;;
20441;SDS011;10380;52.102;20.614;2023-02-26T09:57:34;4.43;;;3.00;;
20441;SDS011;10380;52.102;20.614;2023-02-26T10:03:02;6.23;;;2.93;;
20441;SDS011;10380;52.102;20.614;2023-02-26T10:08:13;4.97;;;2.43;;
20441;SDS011;10380;52.102;20.614;2023-02-26T10:13:41;2.43;;;2.10;;
20441;SDS011;10380;52.102;20.614;2023-02-26T10:16:25;7.70;;;4.10;;
20441;SDS011;10380;52.102;20.614;2023-02-26T10:19:02;4.63;;;3.00;;
20441;SDS011;10380;52.102;20.614;2023-02-26T10:24:21;34.53;;;24.83;;
20441;SDS011;10380;52.102;20.614;2023-02-26T10:27:05;4.43;;;3.50;;
20441;SDS011;10380;52.102;20.614;2023-02-26T10:30:01;8.33;;;4.77;;
20441;SDS011;10380;52.102;20.614;2023-02-26T10:34:55;3.60;;;3.07;;
20441;SDS011;10380;52.102;20.614;2023-02-26T10:42:38;10.57;;;5.57;;
20441;SDS011;10380;52.102;20.614;2023-02-26T10:50:55;5.20;;;3.07;;
20441;SDS011;10380;52.102;20.614;2023-02-26T10:53:23;5.70;;;3.37;;
20441;SDS011;10380;52.102;20.614;2023-02-26T10:56:39;7.50;;;4.30;;
20441;SDS011;10380;52.102;20.614;2023-02-26T10:58:44;8.50;;;4.43;;
20441;SDS011;10380;52.102;20.614;2023-02-26T11:01:19;7.40;;;4.23;;
20441;SDS011;10380;52.102;20.614;2023-02-26T11:03:50;7.97;;;4.13;;
20441;SDS011;10380;52.102;20.614;2023-02-26T11:06:48;2.53;;;1.80;;
20441;SDS011;10380;52.102;20.614;2023-02-26T11:09:17;5.00;;;3.20;;
20441;SDS011;10380;52.102;20.614;2023-02-26T11:14:39;4.03;;;2.60;;
20441;SDS011;10380;52.102;20.614;2023-02-26T11:17:25;5.27;;;2.87;;
20441;SDS011;10380;52.102;20.614;2023-02-26T11:22:31;3.73;;;2.10;;
20441;SDS011;10380;52.102;20.614;2023-02-26T11:25:01;3.47;;;2.50;;
20441;SDS011;10380;52.102;20.614;2023-02-26T11:27:30;3.37;;;2.33;;
20441;SDS011;10380;52.102;20.614;2023-02-26T11:30:03;4.53;;;2.10;;
20441;SDS011;10380;52.102;20.614;2023-02-26T11:32:33;7.00;;;3.23;;
20441;SDS011;10380;52.102;20.614;2023-02-26T11:35:02;3.80;;;2.43;;
20441;SDS011;10380;52.102;20.614;2023-02-26T11:37:35;8.40;;;3.90;;
20441;SDS011;10380;52.102;20.614;2023-02-26T11:40:06;5.80;;;2.97;;
20441;SDS011;10380;52.102;20.614;2023-02-26T11:43:02;5.23;;;2.20;;
20441;SDS011;10380;52.102;20.614;2023-02-26T11:45:31;2.47;;;2.00;;
20441;SDS011;10380;52.102;20.614;2023-02-26T11:48:02;4.37;;;2.90;;
20441;SDS011;10380;52.102;20.614;2023-02-26T11:50:37;4.27;;;2.40;;
20441;SDS011;10380;52.102;20.614;2023-02-26T11:53:19;11.40;;;5.37;;
20441;SDS011;10380;52.102;20.614;2023-02-26T11:55:51;7.13;;;3.63;;
20441;SDS011;10380;52.102;20.614;2023-02-26T11:58:23;8.03;;;3.87;;
20441;SDS011;10380;52.102;20.614;2023-02-26T12:00:51;6.50;;;3.73;;
20441;SDS011;10380;52.102;20.614;2023-02-26T12:03:21;5.07;;;2.90;;
20441;SDS011;10380;52.102;20.614;2023-02-26T12:05:51;6.13;;;3.47;;
20441;SDS011;10380;52.102;20.614;2023-02-26T12:08:27;6.43;;;3.60;;
20441;SDS011;10380;52.102;20.614;2023-02-26T12:18:55;4.70;;;3.00;;
20441;SDS011;10380;52.102;20.614;2023-02-26T12:26:58;1.97;;;1.80;;
20441;SDS011;10380;52.102;20.614;2023-02-26T12:29:40;2.33;;;1.63;;
20441;SDS011;10380;52.102;20.614;2023-02-26T12:37:47;5.70;;;2.60;;
20441;SDS011;10380;52.102;20.614;2023-02-26T12:43:48;6.90;;;2.67;;
20441;SDS011;10380;52.102;20.614;2023-02-26T12:52:04;9.97;;;4.00;;
20441;SDS011;10380;52.102;20.614;2023-02-26T12:54:54;5.47;;;2.07;;
20441;SDS011;10380;52.102;20.614;2023-02-26T12:57:39;2.80;;;2.43;;
20441;SDS011;10380;52.102;20.614;2023-02-26T13:00:28;16.43;;;6.20;;
20441;SDS011;10380;52.102;20.614;2023-02-26T13:08:54;3.93;;;2.00;;
20441;SDS011;10380;52.102;20.614;2023-02-26T13:16:36;4.83;;;2.47;;
20441;SDS011;10380;52.102;20.614;2023-02-26T13:21:56;5.03;;;2.90;;
20441;SDS011;10380;52.102;20.614;2023-02-26T13:24:27;10.77;;;5.30;;
20441;SDS011;10380;52.102;20.614;2023-02-26T13:27:05;3.40;;;2.43;;
20441;SDS011;10380;52.102;20.614;2023-02-26T13:29:34;6.30;;;3.40;;
20441;SDS011;10380;52.102;20.614;2023-02-26T13:32:11;9.17;;;4.30;;
20441;SDS011;10380;52.102;20.614;2023-02-26T13:40:15;4.03;;;2.37;;
20441;SDS011;10380;52.102;20.614;2023-02-26T13:54:02;12.80;;;7.83;;
20441;SDS011;10380;52.102;20.614;2023-02-26T14:06:41;4.73;;;2.83;;
20441;SDS011;10380;52.102;20.614;2023-02-26T14:11:57;8.77;;;4.13;;
20441;SDS011;10380;52.102;20.614;2023-02-26T14:24:55;6.53;;;2.90;;
20441;SDS011;10380;52.102;20.614;2023-02-26T14:32:54;16.20;;;6.20;;
20441;SDS011;10380;52.102;20.614;2023-02-26T14:35:35;5.20;;;2.70;;
20441;SDS011;10380;52.102;20.614;2023-02-26T14:38:09;6.60;;;3.30;;
20441;SDS011;10380;52.102;20.614;2023-02-26T14:41:04;30.77;;;9.53;;
20441;SDS011;10380;52.102;20.614;2023-02-26T14:43:39;16.50;;;6.40;;
20441;SDS011;10380;52.102;20.614;2023-02-26T14:46:08;10.20;;;4.40;;
20441;SDS011;10380;52.102;20.614;2023-02-26T14:48:36;9.20;;;3.97;;
20441;SDS011;10380;52.102;20.614;2023-02-26T14:53:47;20.77;;;8.30;;
20441;SDS011;10380;52.102;20.614;2023-02-26T14:59:15;12.07;;;6.17;;
20441;SDS011;10380;52.102;20.614;2023-02-26T15:01:59;8.77;;;4.00;;
20441;SDS011;10380;52.102;20.614;2023-02-26T15:24:39;14.10;;;6.57;;
20441;SDS011;10380;52.102;20.614;2023-02-26T15:27:06;11.17;;;5.50;;
20441;SDS011;10380;52.102;20.614;2023-02-26T15:29:39;12.83;;;7.57;;
20441;SDS011;10380;52.102;20.614;2023-02-26T15:32:15;11.57;;;5.57;;
20441;SDS011;10380;52.102;20.614;2023-02-26T15:34:56;7.23;;;4.07;;
20441;SDS011;10380;52.102;20.614;2023-02-26T15:37:30;16.87;;;10.53;;
20441;SDS011;10380;52.102;20.614;2023-02-26T15:39:59;100.23;;;55.97;;
20441;SDS011;10380;52.102;20.614;2023-02-26T15:42:31;11.47;;;5.83;;
20441;SDS011;10380;52.102;20.614;2023-02-26T15:45:05;13.60;;;12.13;;
20441;SDS011;10380;52.102;20.614;2023-02-26T15:47:46;8.67;;;5.97;;
20441;SDS011;10380;52.102;20.614;2023-02-26T15:50:19;10.23;;;7.67;;
20441;SDS011;10380;52.102;20.614;2023-02-26T15:52:52;11.23;;;6.53;;
20441;SDS011;10380;52.102;20.614;2023-02-26T15:55:30;6.60;;;4.00;;
20441;SDS011;10380;52.102;20.614;2023-02-26T15:58:04;11.73;;;7.17;;
20441;SDS011;10380;52.102;20.614;2023-02-26T16:00:34;6.10;;;4.40;;
20441;SDS011;10380;52.102;20.614;2023-02-26T16:03:02;8.67;;;5.43;;
20441;SDS011;10380;52.102;20.614;2023-02-26T16:05:29;8.80;;;5.33;;
20441;SDS011;10380;52.102;20.614;2023-02-26T16:07:57;8.70;;;4.40;;
20441;SDS011;10380;52.102;20.614;2023-02-26T16:10:34;10.63;;;4.20;;
20441;SDS011;10380;52.102;20.614;2023-02-26T16:13:05;7.03;;;4.27;;
20441;SDS011;10380;52.102;20.614;2023-02-26T16:15:37;10.80;;;5.77;;
20441;SDS011;10380;52.102;20.614;2023-02-26T16:18:06;10.17;;;4.37;;
20441;SDS011;10380;52.102;20.614;2023-02-26T16:20:46;8.70;;;5.23;;
20441;SDS011;10380;52.102;20.614;2023-02-26T16:23:16;16.03;;;8.57;;
20441;SDS011;10380;52.102;20.614;2023-02-26T16:25:51;26.07;;;13.73;;
20441;SDS011;10380;52.102;20.614;2023-02-26T16:28:33;25.90;;;11.90;;
20441;SDS011;10380;52.102;20.614;2023-02-26T16:31:15;51.27;;;21.77;;
20441;SDS011;10380;52.102;20.614;2023-02-26T16:33:57;97.40;;;33.97;;
20441;SDS011;10380;52.102;20.614;2023-02-26T16:36:26;143.83;;;49.10;;
20441;SDS011;10380;52.102;20.614;2023-02-26T16:38:58;139.10;;;44.30;;
20441;SDS011;10380;52.102;20.614;2023-02-26T16:41:34;157.57;;;50.50;;
20441;SDS011;10380;52.102;20.614;2023-02-26T16:44:27;143.00;;;46.47;;
20441;SDS011;10380;52.102;20.614;2023-02-26T16:46:57;219.77;;;66.73;;
20441;SDS011;10380;52.102;20.614;2023-02-26T16:49:30;208.87;;;66.60;;
20441;SDS011;10380;52.102;20.614;2023-02-26T16:51:58;155.30;;;53.77;;
20441;SDS011;10380;52.102;20.614;2023-02-26T16:54:31;120.70;;;44.93;;
20441;SDS011;10380;52.102;20.614;2023-02-26T16:56:59;111.77;;;45.80;;
20441;SDS011;10380;52.102;20.614;2023-02-26T16:59:34;126.43;;;48.73;;
20441;SDS011;10380;52.102;20.614;2023-02-26T17:02:07;79.53;;;33.10;;
20441;SDS011;10380;52.102;20.614;2023-02-26T17:04:53;60.97;;;27.17;;
20441;SDS011;10380;52.102;20.614;2023-02-26T17:07:27;40.57;;;20.17;;
20441;SDS011;10380;52.102;20.614;2023-02-26T17:11:02;54.00;;;24.10;;
20441;SDS011;10380;52.102;20.614;2023-02-26T17:13:01;44.67;;;19.67;;
20441;SDS011;10380;52.102;20.614;2023-02-26T17:15:36;33.87;;;18.07;;
20441;SDS011;10380;52.102;20.614;2023-02-26T17:18:04;30.97;;;13.87;;
20441;SDS011;10380;52.102;20.614;2023-02-26T17:20:30;29.97;;;14.20;;
20441;SDS011;10380;52.102;20.614;2023-02-26T17:22:58;15.43;;;7.33;;
20441;SDS011;10380;52.102;20.614;2023-02-26T17:25:28;24.20;;;12.57;;
20441;SDS011;10380;52.102;20.614;2023-02-26T17:28:02;18.57;;;9.97;;
20441;SDS011;10380;52.102;20.614;2023-02-26T17:30:29;43.30;;;19.63;;
20441;SDS011;10380;52.102;20.614;2023-02-26T17:33:01;26.33;;;11.07;;
20441;SDS011;10380;52.102;20.614;2023-02-26T17:35:30;39.27;;;17.27;;
20441;SDS011;10380;52.102;20.614;2023-02-26T17:37:57;49.37;;;25.80;;
20441;SDS011;10380;52.102;20.614;2023-02-26T17:40:27;23.57;;;13.20;;
20441;SDS011;10380;52.102;20.614;2023-02-26T17:42:56;12.33;;;7.20;;
20441;SDS011;10380;52.102;20.614;2023-02-26T17:45:25;10.87;;;5.50;;
20441;SDS011;10380;52.102;20.614;2023-02-26T17:47:52;15.07;;;8.03;;
20441;SDS011;10380;52.102;20.614;2023-02-26T17:50:21;11.67;;;6.63;;
20441;SDS011;10380;52.102;20.614;2023-02-26T17:53:09;15.00;;;7.37;;
20441;SDS011;10380;52.102;20.614;2023-02-26T17:55:36;11.00;;;5.97;;
20441;SDS011;10380;52.102;20.614;2023-02-26T17:58:05;9.00;;;5.57;;
20441;SDS011;10380;52.102;20.614;2023-02-26T18:00:37;8.43;;;5.57;;
20441;SDS011;10380;52.102;20.614;2023-02-26T18:03:07;14.77;;;6.53;;
20441;SDS011;10380;52.102;20.614;2023-02-26T18:05:37;13.13;;;5.87;;